Data for 02/09/2018

Time Sea-Level Adjusted Pressure Absolute Pressure Temperature Relative Humidity Dew Point   
(mb) (inHg) (mb) (inHg) (C) (F) (%) (C) (F)
00:05 1018 30.06 847 25.01 -14.2 6.4 73 -18 -0.5
00:10 1018 30.06 847 25.01 -14.3 6.3 74 -18 -0.5
00:15 1018 30.06 847 25.01 -14.3 6.2 74 -18.1 -0.5
00:20 1018 30.06 847 25.01 -14.4 6.1 74 -18.1 -0.6
00:25 1018 30.06 847 25.01 -14.5 6 73 -18.3 -0.9
00:30 1018 30.06 847 25.01 -14.6 5.8 74 -18.3 -0.9
00:35 1018 30.06 847 25.01 -14.6 5.7 74 -18.3 -1
00:40 1018 30.06 847 25.01 -14.6 5.7 74 -18.3 -1
00:45 1018 30.06 847 25.01 -14.5 5.8 73 -18.4 -1.1
00:50 1018 30.06 847 25.01 -14.5 6 72 -18.4 -1.1
00:55 1018 30.06 847 25.01 -14.5 5.9 72 -18.5 -1.3
01:00 1018 30.06 847 25.01 -14.5 5.9 72 -18.5 -1.3
01:05 1018 30.06 847 25.01 -14.5 5.8 72 -18.6 -1.4
01:10 1018 30.06 847 25.01 -14.5 5.9 72 -18.6 -1.4
01:15 1018 30.06 847 25.01 -14.5 5.8 72 -18.5 -1.4
01:20 1018 30.06 847 25.01 -14.5 5.8 72 -18.5 -1.4
01:25 1018 30.06 847 25.01 -14.5 5.9 72 -18.6 -1.4
01:30 1018 30.06 847 25.01 -14.4 6 72 -18.5 -1.3
01:35 1018 30.06 847 25.01 -14.4 6.2 71 -18.5 -1.3
01:40 1018 30.06 848 25.04 -14.3 6.2 71 -18.5 -1.2
01:45 1018 30.06 847 25.01 -14.3 6.2 71 -18.4 -1.2
01:50 1018 30.06 848 25.04 -14.3 6.3 72 -18.3 -1
01:55 1019 30.09 848 25.04 -14.3 6.3 71 -18.4 -1.1
02:00 1019 30.09 848 25.04 -14.3 6.3 72 -18.3 -1
02:05 1019 30.09 848 25.04 -14.3 6.3 72 -18.3 -0.9
02:10 1019 30.09 848 25.04 -14.3 6.3 70 -18.5 -1.4
02:15 1019 30.09 848 25.04 -14.3 6.2 70 -18.6 -1.5
02:20 1019 30.09 848 25.04 -14.3 6.2 70 -18.6 -1.5
02:25 1019 30.09 848 25.04 -14.3 6.2 70 -18.6 -1.5
02:30 1019 30.09 848 25.04 -14.4 6.2 70 -18.6 -1.6
02:35 1019 30.09 848 25.04 -14.5 5.9 71 -18.7 -1.7
02:40 1019 30.09 848 25.04 -14.6 5.8 71 -18.7 -1.7
02:45 1019 30.09 848 25.04 -14.6 5.8 71 -18.8 -1.8
02:50 1019 30.09 848 25.04 -14.5 5.9 70 -18.9 -1.9
02:55 1019 30.09 848 25.04 -14.5 5.8 70 -18.8 -1.9
03:00 1019 30.09 848 25.04 -14.5 5.9 71 -18.8 -1.8
03:05 1019 30.09 848 25.04 -14.5 5.8 70 -18.8 -1.9
03:10 1019 30.09 848 25.04 -14.5 6 70 -18.8 -1.9
03:15 1019 30.09 848 25.04 -14.4 6 70 -18.8 -1.8
03:20 1019 30.09 848 25.04 -14.4 6.1 72 -18.5 -1.3
03:25 1019 30.09 848 25.04 -14.4 6 75 -18 -0.4
03:30 1019 30.09 848 25.04 -14.6 5.8 78 -17.7 0.2
03:35 1019 30.09 848 25.04 -14.7 5.6 79 -17.5 0.5
03:40 1019 30.09 848 25.04 -14.8 5.4 80 -17.5 0.4
03:45 1019 30.09 848 25.04 -14.9 5.2 81 -17.5 0.5
03:50 1019 30.09 848 25.04 -14.9 5.2 82 -17.4 0.8
03:55 1019 30.09 848 25.04 -14.9 5.2 81 -17.4 0.7
04:00 1019 30.09 848 25.04 -15 5.1 82 -17.4 0.7
04:05 1019 30.09 848 25.04 -15.1 4.8 82 -17.6 0.4
04:10 1019 30.09 848 25.04 -15.2 4.6 81 -17.7 0.1
04:15 1019 30.09 848 25.04 -15.3 4.5 81 -17.8 -0.1
04:20 1019 30.09 848 25.04 -15.3 4.5 81 -17.9 -0.3
04:25 1019 30.09 848 25.04 -15.3 4.4 80 -18.1 -0.5
04:30 1019 30.09 848 25.04 -15.4 4.3 80 -18.2 -0.7
04:35 1019 30.09 848 25.04 -15.4 4.3 79 -18.2 -0.8
04:40 1019 30.09 848 25.04 -15.5 4.2 80 -18.1 -0.6
04:45 1019 30.09 848 25.04 -15.5 4.1 80 -18.2 -0.8
04:50 1019 30.09 848 25.04 -15.5 4.1 81 -18.1 -0.5
04:55 1019 30.09 849 25.07 -15.5 4.2 81 -18.1 -0.5
05:00 1019 30.09 849 25.07 -15.5 4.1 80 -18.2 -0.8
05:05 1020 30.12 849 25.07 -15.6 4 81 -18.1 -0.6
05:10 1020 30.12 849 25.07 -15.6 4 81 -18.1 -0.6
05:15 1020 30.12 849 25.07 -15.6 3.9 81 -18.2 -0.7
05:20 1020 30.12 849 25.07 -15.6 3.9 82 -18.1 -0.6
05:25 1019 30.09 849 25.07 -15.7 3.8 81 -18.2 -0.7
05:30 1019 30.09 849 25.07 -15.7 3.8 81 -18.2 -0.8
05:35 1020 30.12 849 25.07 -15.7 3.8 80 -18.3 -1
05:40 1020 30.12 849 25.07 -15.7 3.7 80 -18.5 -1.2
05:45 1020 30.12 849 25.07 -15.8 3.7 80 -18.5 -1.3
05:50 1020 30.12 849 25.07 -15.8 3.7 80 -18.5 -1.2
05:55 1019 30.09 848 25.04 -15.9 3.5 80 -18.5 -1.3
06:00 1020 30.12 849 25.07 -15.9 3.4 81 -18.5 -1.3
06:05 1020 30.12 849 25.07 -16 3.3 81 -18.5 -1.2
06:10 1019 30.09 849 25.07 -15.9 3.3 81 -18.5 -1.3
06:15 1019 30.09 849 25.07 -15.9 3.3 81 -18.4 -1.2
06:20 1019 30.09 849 25.07 -15.9 3.3 80 -18.6 -1.5
06:25 1019 30.09 849 25.07 -16 3.3 79 -18.9 -1.9
06:30 1020 30.12 849 25.07 -15.9 3.3 78 -18.9 -2
06:35 1020 30.12 849 25.07 -15.9 3.4 76 -19.2 -2.5
06:40 1020 30.12 849 25.07 -15.8 3.6 75 -19.3 -2.7
06:45 1020 30.12 849 25.07 -15.8 3.6 74 -19.4 -2.9
06:50 1020 30.12 849 25.07 -15.7 3.7 72 -19.6 -3.3
06:55 1020 30.12 849 25.07 -15.7 3.7 72 -19.7 -3.4
07:00 1020 30.12 849 25.07 -15.7 3.8 69 -20.2 -4.3
07:05 1020 30.12 849 25.07 -15.8 3.6 70 -20 -4
07:10 1020 30.12 849 25.07 -15.6 3.8 73 -19.4 -3
07:15 1020 30.12 849 25.07 -15.4 4.2 74 -19 -2.2
07:20 1020 30.12 849 25.07 -15.3 4.5 77 -18.4 -1.2
07:25 1020 30.12 849 25.07 -15.2 4.6 75 -18.7 -1.6
07:30 1020 30.12 849 25.07 -15.2 4.7 75 -18.7 -1.6
07:35 1020 30.12 849 25.07 -15.4 4.4 79 -18.1 -0.7
07:40 1020 30.12 850 25.1 -15.4 4.3 80 -18.1 -0.6
07:45 1020 30.12 849 25.07 -15.2 4.7 80 -17.9 -0.3
07:50 1020 30.12 849 25.07 -15.1 4.8 79 -18 -0.3
07:55 1020 30.12 849 25.07 -15 5 79 -17.9 -0.3
08:00 1020 30.12 849 25.07 -14.8 5.5 78 -17.8 -0.1
08:05 1020 30.12 849 25.07 -14.7 5.5 79 -17.7 0.2
08:10 1020 30.12 849 25.07 -14.8 5.4 76 -18.2 -0.7
08:15 1020 30.12 849 25.07 -15 5 78 -18 -0.4
08:20 1020 30.12 849 25.07 -14.9 5.1 76 -18.2 -0.8
08:25 1020 30.12 849 25.07 -14.9 5.2 76 -18.2 -0.8
08:30 1020 30.12 850 25.1 -14.9 5.1 75 -18.4 -1.1
08:35 1020 30.12 849 25.07 -15 5.1 75 -18.4 -1.2
08:40 1020 30.12 849 25.07 -14.9 5.2 75 -18.3 -1
08:45 1020 30.12 849 25.07 -14.4 6.1 74 -18 -0.4
08:50 1020 30.12 849 25.07 -14.1 6.6 75 -17.7 0.1
08:55 1020 30.12 849 25.07 -14.1 6.6 75 -17.6 0.2
09:00 1020 30.12 849 25.07 -13.9 7 74 -17.6 0.3
09:05 1020 30.12 849 25.07 -14 6.9 72 -17.9 -0.2
09:10 1020 30.12 849 25.07 -14.1 6.6 73 -17.9 -0.2
09:15 1020 30.12 850 25.1 -14.1 6.6 73 -18 -0.3
09:20 1020 30.12 850 25.1 -14.1 6.5 73 -18 -0.4
09:25 1021 30.15 850 25.1 -14.1 6.7 72 -18.1 -0.6
09:30 1021 30.15 850 25.1 -14 6.8 72 -18.1 -0.5
09:35 1021 30.15 850 25.1 -14.1 6.7 72 -18.1 -0.6
09:40 1021 30.15 850 25.1 -14.2 6.4 73 -18.1 -0.5
09:45 1021 30.15 850 25.1 -14.1 6.6 74 -17.9 -0.2
09:50 1021 30.15 850 25.1 -14 6.8 74 -17.7 0.2
09:55 1021 30.15 850 25.1 -14.2 6.5 73 -17.9 -0.3
10:00 1021 30.15 850 25.1 -14.1 6.6 74 -17.8 -0
10:05 1021 30.15 850 25.1 -14 6.8 71 -18.1 -0.6
10:10 1021 30.15 850 25.1 -14.1 6.6 74 -17.9 -0.1
10:15 1021 30.15 850 25.1 -13.8 7.1 72 -17.8 -0
10:20 1021 30.15 850 25.1 -13.5 7.7 71 -17.7 0.1
10:25 1021 30.15 850 25.1 -13.4 7.9 70 -17.7 0.2
10:30 1021 30.15 850 25.1 -13.5 7.6 71 -17.7 0.1
10:35 1021 30.15 850 25.1 -13.4 7.9 71 -17.6 0.3
10:40 1021 30.15 850 25.1 -13.3 8.1 70 -17.6 0.3
10:45 1021 30.15 850 25.1 -13 8.7 69 -17.5 0.5
10:50 1021 30.15 850 25.1 -13.3 8 71 -17.5 0.6
10:55 1021 30.15 850 25.1 -13.1 8.4 68 -17.7 0.1
11:00 1021 30.15 850 25.1 -13.2 8.3 69 -17.7 0.2
11:05 1021 30.15 850 25.1 -13 8.5 68 -17.8 -0.1
11:10 1021 30.15 850 25.1 -13.3 8.1 68 -18.1 -0.5
11:15 1021 30.15 850 25.1 -13.4 7.8 70 -17.9 -0.2
11:20 1021 30.15 850 25.1 -13.3 8.1 69 -17.8 -0.1
11:25 1021 30.15 850 25.1 -13.2 8.2 69 -17.8 -0
11:30 1021 30.15 850 25.1 -12.9 8.7 68 -17.7 0.2
11:35 1021 30.15 850 25.1 -12.7 9.1 67 -17.6 0.3
11:40 1021 30.15 850 25.1 -12.9 8.8 66 -17.9 -0.2
11:45 1021 30.15 850 25.1 -12.7 9.1 68 -17.4 0.6
11:50 1021 30.15 850 25.1 -12.6 9.3 65 -17.9 -0.2
11:55 1020 30.12 850 25.1 -12.6 9.4 65 -17.8 0
12:00 1020 30.12 850 25.1 -12.6 9.4 65 -17.8 -0
12:05 1020 30.12 850 25.1 -12.7 9.1 66 -17.8 0
12:10 1020 30.12 850 25.1 -13 8.7 67 -17.9 -0.3
12:15 1020 30.12 850 25.1 -12.7 9.1 65 -18 -0.4
12:20 1020 30.12 850 25.1 -12.7 9.2 65 -18 -0.3
12:25 1020 30.12 850 25.1 -12.7 9.1 65 -18 -0.4
12:30 1020 30.12 850 25.1 -12.6 9.3 65 -17.9 -0.2
12:35 1020 30.12 850 25.1 -12.6 9.3 64 -18.1 -0.6
12:40 1020 30.12 850 25.1 -12.9 8.9 66 -18 -0.4
12:45 1020 30.12 850 25.1 -12.6 9.2 65 -18 -0.4
12:50 1020 30.12 850 25.1 -12.6 9.4 66 -17.8 0
12:55 1020 30.12 850 25.1 -12.9 8.8 67 -17.8 0
13:00 1020 30.12 850 25.1 -13.3 8.1 69 -17.9 -0.2
13:05 1020 30.12 850 25.1 -12.8 8.9 66 -18 -0.3
13:10 1020 30.12 850 25.1 -12.7 9.1 66 -17.8 -0
13:15 1020 30.12 850 25.1 -12.8 8.9 68 -17.5 0.5
13:20 1020 30.12 849 25.07 -12.5 9.5 66 -17.7 0.1
13:25 1020 30.12 849 25.07 -12.7 9.2 66 -17.8 -0.1
13:30 1020 30.12 849 25.07 -13 8.6 67 -17.9 -0.2
13:35 1020 30.12 849 25.07 -13.3 8.2 68 -17.9 -0.2
13:40 1020 30.12 849 25.07 -13.5 7.7 69 -18 -0.4
13:45 1020 30.12 849 25.07 -14 6.8 68 -18.7 -1.6
13:50 1020 30.12 849 25.07 -13.8 7.2 70 -18.2 -0.7
13:55 1020 30.12 849 25.07 -13.8 7.1 71 -18.1 -0.6
14:00 1020 30.12 849 25.07 -13.9 7 68 -18.6 -1.5
14:05 1020 30.12 849 25.07 -13.6 7.4 70 -18 -0.4
14:10 1020 30.12 849 25.07 -12.9 8.7 67 -17.9 -0.2
14:15 1020 30.12 849 25.07 -12.7 9.1 67 -17.6 0.4
14:20 1020 30.12 849 25.07 -12.7 9.1 65 -17.9 -0.3
14:25 1020 30.12 849 25.07 -13.1 8.3 69 -17.7 0.1
14:30 1020 30.12 849 25.07 -13 8.7 68 -17.7 0.2
14:35 1020 30.12 849 25.07 -13 8.6 68 -17.7 0.1
14:40 1020 30.12 849 25.07 -12.9 8.7 67 -17.9 -0.2
14:45 1020 30.12 849 25.07 -13.2 8.3 71 -17.4 0.6
14:50 1020 30.12 849 25.07 -13 8.6 67 -17.9 -0.2
14:55 1020 30.12 849 25.07 -12.9 8.7 67 -17.8 -0.1
15:00 1020 30.12 849 25.07 -12.9 8.9 66 -18 -0.4
15:05 1020 30.12 849 25.07 -13.2 8.2 69 -17.8 0
15:10 1020 30.12 849 25.07 -13.4 7.9 71 -17.6 0.2
15:15 1020 30.12 849 25.07 -13.2 8.3 68 -18 -0.3
15:20 1020 30.12 849 25.07 -13.2 8.3 70 -17.5 0.5
15:25 1020 30.12 850 25.1 -13 8.6 69 -17.5 0.4
15:30 1020 30.12 850 25.1 -12.9 8.7 70 -17.4 0.8
15:35 1020 30.12 850 25.1 -13.4 7.8 73 -17.3 0.8
15:40 1020 30.12 850 25.1 -13.7 7.4 74 -17.4 0.6
15:45 1020 30.12 850 25.1 -13.5 7.6 74 -17.3 0.9
15:50 1020 30.12 850 25.1 -13.6 7.5 74 -17.3 0.9
15:55 1020 30.12 850 25.1 -13.7 7.4 73 -17.5 0.6
16:00 1020 30.12 850 25.1 -13.9 7 76 -17.3 0.8
16:05 1020 30.12 850 25.1 -13.8 7.2 76 -17.2 1
16:10 1020 30.12 850 25.1 -13.6 7.6 73 -17.4 0.8
16:15 1020 30.12 850 25.1 -13.8 7.2 76 -17.2 1
16:20 1020 30.12 850 25.1 -13.7 7.3 73 -17.6 0.3
16:25 1020 30.12 850 25.1 -14.1 6.7 77 -17.3 0.8
16:30 1020 30.12 850 25.1 -13.9 7 76 -17.2 1
16:35 1020 30.12 850 25.1 -13.7 7.3 74 -17.3 0.8
16:40 1020 30.12 849 25.07 -13.7 7.3 75 -17.3 0.9
16:45 1020 30.12 849 25.07 -13.9 7 76 -17.2 1
16:50 1020 30.12 849 25.07 -14 6.8 75 -17.6 0.4
16:55 1020 30.12 849 25.07 -14.4 6.1 77 -17.6 0.4
17:00 1020 30.12 849 25.07 -14.6 5.8 78 -17.6 0.3
17:05 1020 30.12 849 25.07 -14.4 6 77 -17.7 0.1
17:10 1020 30.12 849 25.07 -14.6 5.7 79 -17.5 0.5
17:15 1020 30.12 849 25.07 -14.3 6.3 78 -17.3 0.9
17:20 1020 30.12 849 25.07 -14.2 6.4 77 -17.4 0.7
17:25 1020 30.12 849 25.07 -14.3 6.2 77 -17.5 0.4
17:30 1020 30.12 849 25.07 -14.5 5.9 78 -17.5 0.5
17:35 1020 30.12 849 25.07 -14.5 5.8 78 -17.5 0.4
17:40 1020 30.12 849 25.07 -14.5 5.9 78 -17.5 0.4
17:45 1020 30.12 849 25.07 -14.4 6.1 81 -17 1.4
17:50 1020 30.12 849 25.07 -13.9 6.9 77 -17.1 1.2
17:55 1020 30.12 849 25.07 -13.7 7.3 78 -16.8 1.7
18:00 1020 30.12 849 25.07 -13.7 7.4 77 -16.9 1.6
18:05 1020 30.12 849 25.07 -13.8 7.1 77 -17 1.5
18:10 1020 30.12 849 25.07 -13.7 7.3 77 -16.9 1.5
18:15 1020 30.12 849 25.07 -13.8 7.1 77 -17 1.5
18:20 1020 30.12 849 25.07 -13.8 7.2 78 -16.9 1.5
18:25 1020 30.12 849 25.07 -13.8 7.1 78 -16.9 1.6
18:30 1020 30.12 849 25.07 -13.9 7.1 78 -16.9 1.6
18:35 1020 30.12 849 25.07 -13.9 7.1 78 -17 1.4
18:40 1020 30.12 849 25.07 -13.9 6.9 77 -17.1 1.2
18:45 1020 30.12 849 25.07 -13.9 6.9 77 -17.1 1.3
18:50 1020 30.12 849 25.07 -13.9 6.9 78 -17 1.4
18:55 1020 30.12 849 25.07 -14.1 6.7 77 -17.3 0.9
19:00 1020 30.12 849 25.07 -14.5 5.9 79 -17.4 0.6
19:05 1020 30.12 849 25.07 -14.8 5.3 80 -17.6 0.4
19:10 1020 30.12 849 25.07 -14.7 5.6 80 -17.5 0.5
19:15 1020 30.12 849 25.07 -14.7 5.6 81 -17.3 0.8
19:20 1019 30.09 849 25.07 -14.7 5.5 81 -17.3 0.8
19:25 1019 30.09 849 25.07 -15 5 82 -17.4 0.6
19:30 1019 30.09 849 25.07 -14.9 5.2 82 -17.3 0.8
19:35 1019 30.09 849 25.07 -14.5 5.8 81 -17.2 1.1
19:40 1019 30.09 848 25.04 -14.4 6 80 -17.2 1
19:45 1019 30.09 848 25.04 -14.4 6.1 79 -17.2 1
19:50 1019 30.09 848 25.04 -14.3 6.2 79 -17.2 1.1
19:55 1019 30.09 848 25.04 -14.4 6.1 79 -17.2 1
20:00 1019 30.09 848 25.04 -14.4 6.1 79 -17.3 0.8
20:05 1019 30.09 848 25.04 -14.7 5.5 80 -17.5 0.5
20:10 1019 30.09 848 25.04 -14.9 5.2 81 -17.5 0.5
20:15 1019 30.09 848 25.04 -14.7 5.5 81 -17.3 0.9
20:20 1019 30.09 848 25.04 -14.6 5.8 80 -17.4 0.7
20:25 1019 30.09 848 25.04 -14.8 5.3 81 -17.4 0.8
20:30 1019 30.09 848 25.04 -14.8 5.4 80 -17.5 0.6
20:35 1019 30.09 848 25.04 -14.9 5.1 81 -17.5 0.6
20:40 1019 30.09 848 25.04 -15.1 4.9 82 -17.5 0.4
20:45 1019 30.09 848 25.04 -15.1 4.9 83 -17.4 0.7
20:50 1019 30.09 848 25.04 -14.7 5.6 82 -17.1 1.2
20:55 1019 30.09 848 25.04 -14.6 5.8 80 -17.3 0.9
21:00 1019 30.09 848 25.04 -14.9 5.3 82 -17.3 0.9
21:05 1019 30.09 848 25.04 -14.6 5.7 81 -17.1 1.2
21:10 1019 30.09 848 25.04 -14.5 6 80 -17.2 1.1
21:15 1019 30.09 848 25.04 -14.5 6 80 -17.2 1.1
21:20 1019 30.09 848 25.04 -14.5 5.9 78 -17.5 0.5
21:25 1019 30.09 848 25.04 -15.1 4.7 81 -17.7 0.1
21:30 1019 30.09 848 25.04 -15.2 4.6 81 -17.7 0.1
21:35 1019 30.09 848 25.04 -15.1 4.8 82 -17.5 0.5
21:40 1019 30.09 848 25.04 -14.9 5.3 82 -17.3 0.9
21:45 1019 30.09 848 25.04 -14.7 5.5 81 -17.2 1
21:50 1019 30.09 848 25.04 -14.6 5.7 81 -17.2 1
21:55 1019 30.09 848 25.04 -14.6 5.7 80 -17.3 0.9
22:00 1019 30.09 848 25.04 -14.6 5.7 80 -17.3 0.8
22:05 1019 30.09 848 25.04 -14.6 5.7 80 -17.3 0.8
22:10 1019 30.09 848 25.04 -14.6 5.7 80 -17.3 0.9
22:15 1019 30.09 848 25.04 -14.6 5.7 80 -17.3 0.9
22:20 1019 30.09 848 25.04 -14.8 5.3 80 -17.5 0.5
22:25 1019 30.09 848 25.04 -15.3 4.6 82 -17.6 0.3
22:30 1019 30.09 848 25.04 -15.2 4.7 81 -17.8 0
22:35 1019 30.09 848 25.04 -15.5 4.2 81 -18 -0.4
22:40 1019 30.09 848 25.04 -15.6 3.9 82 -18 -0.4
22:45 1018 30.06 848 25.04 -15.4 4.3 82 -17.8 -0.1
22:50 1018 30.06 848 25.04 -15.4 4.3 81 -17.9 -0.2
22:55 1018 30.06 848 25.04 -15.5 4.1 82 -17.9 -0.1
23:00 1018 30.06 848 25.04 -15.4 4.2 82 -17.8 -0.1
23:05 1018 30.06 848 25.04 -15.4 4.3 82 -17.8 -0.1
23:10 1018 30.06 848 25.04 -15.3 4.6 82 -17.6 0.3
23:15 1018 30.06 848 25.04 -15 5 81 -17.6 0.3
23:20 1018 30.06 848 25.04 -15 5 81 -17.6 0.3
23:25 1018 30.06 848 25.04 -15 5.1 81 -17.6 0.3
23:30 1018 30.06 847 25.01 -15 5.1 81 -17.6 0.3
23:35 1018 30.06 847 25.01 -15.1 4.8 80 -17.8 -0
23:40 1018 30.06 847 25.01 -15.5 4.2 82 -17.9 -0.3
23:45 1018 30.06 847 25.01 -15.4 4.2 82 -17.8 0
23:50 1018 30.06 847 25.01 -15.2 4.6 82 -17.6 0.4
23:55 1018 30.06 847 25.01 -15.1 4.9 82 -17.5 0.5
24:00 1018 30.06 847 25.01 -15.1 4.7 82 -17.6 0.3